Time;durP1;ratioP1;P1;durP2;ratioP2;P2;SDS_P1;SDS_P2;PMS_P1;PMS_P2;Temp;Humidity;BMP_temperature;BMP_pressure;BME280_temperature;BME280_humidity;BME280_pressure;Samples;Min_cycle;Max_cycle;Signal;HPM_P1;HPM_P2
2023/05/22 00:02:22;;;;;;;;;;;17.40;99.90;;;;;;5066266;28;19912;-86
2023/05/22 00:04:49;;;;;;;;;;;17.30;99.90;;;;;;5113658;27;19912;-87
2023/05/22 00:07:17;;;;;;;;;;;17.30;99.90;;;;;;5082309;28;19922;-86
2023/05/22 00:09:44;;;;;;;;;;;17.30;99.90;;;;;;5063799;28;19916;-87
2023/05/22 00:12:10;;;;;;;;;;;17.30;99.90;;;;;;5081609;28;19911;-88
2023/05/22 00:14:36;;;;;;;;;;;17.30;99.90;;;;;;5083711;28;19938;-89
2023/05/22 00:17:29;;;;;;;;;;;17.30;99.90;;;;;;5062819;28;20127;-87
2023/05/22 00:20:07;;;;;;;;;;;17.30;99.90;;;;;;5080078;28;19912;-87
2023/05/22 00:23:16;;;;;;;;;;;17.30;99.90;;;;;;5057329;28;19985;-87
2023/05/22 00:25:42;;;;;;;;;;;17.40;99.90;;;;;;5106083;27;19920;-86
2023/05/22 00:28:08;;;;;;;;;;;17.40;99.90;;;;;;5091689;27;20553;-86
2023/05/22 00:30:36;;;;;;;;;;;17.40;99.90;;;;;;5065194;28;20438;-88
2023/05/22 00:33:02;;;;;;;;;;;17.40;99.90;;;;;;5090063;27;20255;-87
2023/05/22 00:35:28;;;;;;;;;;;17.40;99.90;;;;;;5076067;28;19999;-89
2023/05/22 00:37:55;;;;;;;;;;;17.40;99.90;;;;;;5060191;28;20371;-86
2023/05/22 00:40:21;;;;;;;;;;;17.40;99.90;;;;;;5078057;28;20256;-85
2023/05/22 00:42:47;;;;;;;;;;;17.40;99.90;;;;;;5060565;28;20564;-86
2023/05/22 00:45:14;;;;;;;;;;;17.40;99.90;;;;;;5076566;28;20052;-87
2023/05/22 00:47:40;;;;;;;;;;;17.40;99.90;;;;;;5060652;28;20562;-87
2023/05/22 00:50:08;;;;;;;;;;;17.40;99.90;;;;;;5058671;28;19959;-87
2023/05/22 00:52:38;;;;;;;;;;;17.40;99.90;;;;;;5072403;28;19916;-87
2023/05/22 00:55:05;;;;;;;;;;;17.40;99.90;;;;;;5057545;28;19916;-86
2023/05/22 00:57:32;;;;;;;;;;;17.50;99.90;;;;;;5059709;28;19931;-87
2023/05/22 01:00:01;;;;;;;;;;;17.50;99.90;;;;;;5060028;28;19915;-87
2023/05/22 01:02:31;;;;;;;;;;;17.40;99.90;;;;;;5089585;28;19973;-87
2023/05/22 01:04:58;;;;;;;;;;;17.40;99.90;;;;;;5077728;28;19911;-87
2023/05/22 01:07:24;;;;;;;;;;;17.30;99.90;;;;;;5060884;28;19920;-87
2023/05/22 01:09:54;;;;;;;;;;;17.30;99.90;;;;;;5075016;28;20354;-87
2023/05/22 01:12:28;;;;;;;;;;;17.20;99.90;;;;;;5077915;28;19912;-86
2023/05/22 01:18:51;;;;;;;;;;;17.20;99.90;;;;;;5077088;28;20005;-87
2023/05/22 01:21:45;;;;;;;;;;;17.10;99.90;;;;;;5063533;28;19919;-86
2023/05/22 01:24:40;;;;;;;;;;;17.10;99.90;;;;;;5060346;28;19920;-87
2023/05/22 01:27:33;;;;;;;;;;;17.10;99.90;;;;;;5058070;28;20335;-86
2023/05/22 01:30:06;;;;;;;;;;;17.10;99.90;;;;;;5063109;28;19923;-87
2023/05/22 01:32:35;;;;;;;;;;;17.10;99.90;;;;;;5064017;28;19919;-86
2023/05/22 01:35:07;;;;;;;;;;;17.10;99.90;;;;;;5057646;28;20560;-89
2023/05/22 01:37:35;;;;;;;;;;;17.10;99.90;;;;;;5057015;28;19942;-87
2023/05/22 01:40:02;;;;;;;;;;;17.00;99.90;;;;;;5065456;28;19920;-86
2023/05/22 01:42:29;;;;;;;;;;;17.00;99.90;;;;;;5060085;28;19915;-88
2023/05/22 01:45:16;;;;;;;;;;;17.00;99.90;;;;;;5066649;28;20050;-86
2023/05/22 01:47:43;;;;;;;;;;;17.00;99.90;;;;;;5071177;28;20366;-86
2023/05/22 01:50:10;;;;;;;;;;;17.00;99.90;;;;;;5085478;28;19915;-87
2023/05/22 01:53:00;;;;;;;;;;;17.00;99.90;;;;;;5090876;28;19924;-86
2023/05/22 01:55:41;;;;;;;;;;;17.10;99.90;;;;;;5106541;27;20027;-86
2023/05/22 01:58:20;;;;;;;;;;;17.00;99.90;;;;;;5073852;28;19916;-87
2023/05/22 02:00:50;;;;;;;;;;;17.10;99.90;;;;;;5059871;28;20383;-87
2023/05/22 02:03:20;;;;;;;;;;;17.10;99.90;;;;;;5075238;28;19923;-85
2023/05/22 02:05:51;;;;;;;;;;;17.10;99.90;;;;;;5071462;28;20430;-86
2023/05/22 02:08:19;;;;;;;;;;;17.00;99.90;;;;;;5056093;28;19961;-86
2023/05/22 02:10:48;;;;;;;;;;;17.00;99.90;;;;;;5080472;28;19916;-87
2023/05/22 02:13:14;;;;;;;;;;;17.00;99.90;;;;;;5057963;28;19924;-87
2023/05/22 02:15:43;;;;;;;;;;;17.00;99.90;;;;;;5064777;28;19912;-86
2023/05/22 02:18:13;;;;;;;;;;;17.00;99.90;;;;;;5063337;28;20010;-86
2023/05/22 02:20:41;;;;;;;;;;;17.00;99.90;;;;;;5089866;28;19918;-86
2023/05/22 02:23:07;;;;;;;;;;;17.00;99.90;;;;;;5059007;28;19981;-88
2023/05/22 02:25:33;;;;;;;;;;;17.00;99.90;;;;;;5061702;28;20044;-87
2023/05/22 02:27:59;;;;;;;;;;;17.00;99.90;;;;;;5059406;28;19919;-86
2023/05/22 02:30:25;;;;;;;;;;;16.90;99.90;;;;;;5059299;28;19916;-85
2023/05/22 02:32:51;;;;;;;;;;;16.90;99.90;;;;;;5079870;28;19924;-86
2023/05/22 02:35:17;;;;;;;;;;;16.90;99.90;;;;;;5060528;28;19912;-87
2023/05/22 02:37:44;;;;;;;;;;;16.90;99.90;;;;;;5059502;28;19932;-87
2023/05/22 02:40:10;;;;;;;;;;;16.80;99.90;;;;;;5094088;27;19919;-87
2023/05/22 02:42:36;;;;;;;;;;;16.80;99.90;;;;;;5090891;28;20157;-86
2023/05/22 02:45:09;;;;;;;;;;;16.80;99.90;;;;;;5062870;28;20365;-86
2023/05/22 02:47:35;;;;;;;;;;;16.70;99.90;;;;;;5059544;28;19952;-87
2023/05/22 02:50:01;;;;;;;;;;;16.80;99.90;;;;;;5072651;28;19915;-87
2023/05/22 02:52:27;;;;;;;;;;;16.80;99.90;;;;;;5063200;28;19924;-87
2023/05/22 02:54:53;;;;;;;;;;;16.70;99.90;;;;;;5064716;28;20385;-88
2023/05/22 02:57:22;;;;;;;;;;;16.60;99.90;;;;;;5081215;28;19924;-89
2023/05/22 02:59:49;;;;;;;;;;;16.60;99.90;;;;;;5061403;28;19923;-87
2023/05/22 03:02:16;;;;;;;;;;;16.60;99.90;;;;;;5078785;28;19920;-87
2023/05/22 03:04:42;;;;;;;;;;;16.60;99.90;;;;;;5060969;28;19916;-87
2023/05/22 03:07:11;;;;;;;;;;;16.60;99.90;;;;;;5085333;28;20020;-87
2023/05/22 03:09:40;;;;;;;;;;;16.60;99.90;;;;;;5066114;28;19911;-87
2023/05/22 03:12:06;;;;;;;;;;;16.60;99.90;;;;;;5076473;28;19919;-87
2023/05/22 03:14:33;;;;;;;;;;;16.60;99.90;;;;;;5076313;28;20004;-86
2023/05/22 03:16:59;;;;;;;;;;;16.60;99.90;;;;;;5061139;28;20265;-87
2023/05/22 03:19:27;;;;;;;;;;;16.60;99.90;;;;;;5108822;27;19919;-87
2023/05/22 03:21:54;;;;;;;;;;;16.50;99.90;;;;;;5062419;28;20399;-86
2023/05/22 03:24:20;;;;;;;;;;;16.50;99.90;;;;;;5083140;28;19942;-86
2023/05/22 03:26:46;;;;;;;;;;;16.50;99.90;;;;;;5079843;28;19969;-87
2023/05/22 03:29:13;;;;;;;8.70;5.70;;;16.60;99.90;;;;;;5060583;28;20196;-88
2023/05/22 03:31:39;;;;;;;9.07;5.63;;;16.60;99.90;;;;;;5076818;28;20194;-86
2023/05/22 03:34:06;;;;;;;9.20;5.90;;;16.60;99.90;;;;;;5062360;28;20421;-88
2023/05/22 03:36:35;;;;;;;10.93;6.10;;;16.60;99.90;;;;;;5080363;28;20407;-90
2023/05/22 03:39:03;;;;;;;8.85;5.40;;;16.60;99.90;;;;;;5077187;28;20421;-84
2023/05/22 03:41:30;;;;;;;10.20;5.22;;;16.60;99.90;;;;;;5104133;27;20416;-86
2023/05/22 03:43:58;;;;;;;8.13;5.15;;;16.60;99.90;;;;;;5054090;28;20421;-85
2023/05/22 03:46:25;;;;;;;11.68;5.32;;;16.70;99.90;;;;;;5091290;28;20512;-88
2023/05/22 03:48:51;;;;;;;9.88;5.03;;;16.70;99.90;;;;;;5078019;28;20408;-85
2023/05/22 03:51:17;;;;;;;10.90;4.63;;;16.70;99.90;;;;;;5077797;28;20512;-85
2023/05/22 03:53:44;;;;;;;9.02;4.65;;;16.80;99.90;;;;;;5076464;28;20418;-88
2023/05/22 03:56:10;;;;;;;10.23;4.70;;;16.80;99.90;;;;;;5094345;27;20497;-87
2023/05/22 03:58:37;;;;;;;12.53;4.87;;;16.90;99.90;;;;;;5073072;28;20417;-86
2023/05/22 04:01:04;;;;;;;12.60;4.82;;;16.90;99.90;;;;;;5058339;28;20479;-86
2023/05/22 04:03:31;;;;;;;9.75;4.50;;;16.90;99.90;;;;;;5091253;28;20406;-84
2023/05/22 04:06:02;;;;;;;10.88;4.63;;;17.00;99.90;;;;;;5076184;28;20410;-83
2023/05/22 04:08:29;;;;;;;11.77;4.82;;;17.10;99.90;;;;;;5073623;28;20417;-86
2023/05/22 04:10:59;;;;;;;13.00;5.03;;;17.10;99.90;;;;;;5057130;28;20418;-84
2023/05/22 04:13:27;;;;;;;11.90;5.13;;;17.20;99.90;;;;;;5083320;28;20212;-84
2023/05/22 04:15:55;;;;;;;10.27;4.63;;;17.20;99.90;;;;;;5093077;27;21331;-85
2023/05/22 04:18:25;;;;;;;11.00;4.20;;;17.20;99.90;;;;;;5061117;28;20182;-83
2023/05/22 04:20:51;;;;;;;13.30;5.00;;;17.30;99.90;;;;;;5090648;27;20752;-84
2023/05/22 04:23:17;;;;;;;10.27;4.38;;;17.30;99.90;;;;;;5055619;28;20410;-84
2023/05/22 04:25:46;;;;;;;9.50;4.73;;;17.40;99.90;;;;;;5086807;27;20410;-84
2023/05/22 04:28:16;;;;;;;8.82;4.35;;;17.40;99.90;;;;;;5057960;28;20421;-84
2023/05/22 04:30:43;;;;;;;11.68;4.85;;;17.40;99.90;;;;;;5063928;28;20433;-85
2023/05/22 04:33:10;;;;;;;10.80;5.30;;;17.50;99.90;;;;;;5078327;28;20404;-86
2023/05/22 04:35:36;;;;;;;10.43;4.23;;;17.50;99.90;;;;;;5081694;28;20197;-83
2023/05/22 04:38:05;;;;;;;17.20;4.93;;;17.60;99.90;;;;;;5077319;28;20196;-85
2023/05/22 04:40:33;;;;;;;13.03;4.80;;;17.60;99.90;;;;;;5103470;27;20189;-83
2023/05/22 04:43:00;;;;;;;10.80;4.83;;;17.60;99.90;;;;;;5074733;28;20193;-83
2023/05/22 04:45:27;;;;;;;11.97;4.63;;;17.70;99.90;;;;;;5108188;27;20189;-82
2023/05/22 04:47:54;;;;;;;9.57;4.03;;;17.70;99.90;;;;;;5064962;28;20209;-87
2023/05/22 04:50:22;;;;;;;13.07;4.70;;;17.70;99.90;;;;;;5059183;28;20193;-86
2023/05/22 04:52:49;;;;;;;11.10;4.63;;;17.70;99.90;;;;;;5075149;28;20189;-84
2023/05/22 04:55:16;;;;;;;9.53;4.50;;;17.80;99.90;;;;;;5105760;27;20185;-85
2023/05/22 04:57:46;;;;;;;10.93;4.03;;;17.80;99.90;;;;;;5059992;28;20181;-84
2023/05/22 05:00:15;;;;;;;9.83;4.90;;;17.80;99.90;;;;;;5090479;28;20259;-83
2023/05/22 05:02:42;;;;;;;11.27;4.43;;;17.90;99.90;;;;;;5053374;28;20187;-83
2023/05/22 05:05:09;;;;;;;14.27;5.10;;;17.90;99.90;;;;;;5075108;28;20185;-83
2023/05/22 05:07:39;;;;;;;10.03;4.80;;;18.00;99.90;;;;;;5075475;28;20215;-83
2023/05/22 05:10:06;;;;;;;11.83;5.03;;;18.00;99.90;;;;;;5071345;28;20198;-82
2023/05/22 05:12:33;;;;;;;15.70;4.43;;;18.00;99.90;;;;;;5060553;28;20244;-83
2023/05/22 05:14:59;;;;;;;12.83;4.50;;;18.10;99.90;;;;;;5076824;28;20263;-83
2023/05/22 05:17:26;;;;;;;13.33;5.00;;;18.10;99.90;;;;;;5104896;27;20183;-82
2023/05/22 05:19:52;;;;;;;10.70;4.70;;;18.10;99.90;;;;;;5078432;28;20247;-83
2023/05/22 05:22:19;;;;;;;14.97;5.27;;;18.10;99.90;;;;;;5071115;28;20688;-82
2023/05/22 05:24:45;;;;;;;11.97;4.60;;;18.20;99.90;;;;;;5059437;28;20277;-83
2023/05/22 05:27:11;;;;;;;10.20;5.13;;;18.20;99.90;;;;;;5089163;28;20186;-82
2023/05/22 05:29:37;;;;;;;8.70;4.40;;;18.20;99.90;;;;;;5059578;28;20185;-81
2023/05/22 05:32:04;;;;;;;10.43;4.93;;;18.30;99.90;;;;;;5071561;28;20336;-82
2023/05/22 05:34:31;;;;;;;11.40;5.30;;;18.30;99.90;;;;;;5073926;28;20206;-83
2023/05/22 05:36:57;;;;;;;10.97;5.00;;;18.30;99.90;;;;;;5056859;28;20186;-83
2023/05/22 05:39:23;;;;;;;14.47;4.40;;;18.40;99.90;;;;;;5057528;28;20182;-82
2023/05/22 05:41:50;;;;;;;14.40;4.97;;;18.40;99.90;;;;;;5072335;28;20612;-81
2023/05/22 05:44:20;;;;;;;11.73;4.70;;;18.40;99.90;;;;;;5090373;28;20858;-81
2023/05/22 05:46:46;;;;;;;14.77;4.60;;;18.40;99.90;;;;;;5073581;28;20242;-84
2023/05/22 05:49:12;;;;;;;12.93;4.80;;;18.50;99.90;;;;;;5058143;28;20192;-82
2023/05/22 05:51:39;;;;;;;12.17;4.70;;;18.50;99.90;;;;;;5073435;28;20276;-84
2023/05/22 05:54:05;;;;;;;14.43;4.43;;;18.60;99.90;;;;;;5071651;28;20233;-83
2023/05/22 05:56:32;;;;;;;18.23;4.20;;;18.60;99.90;;;;;;5073906;28;20198;-82
2023/05/22 05:58:58;;;;;;;13.13;4.40;;;18.70;99.90;;;;;;5071891;28;20228;-84
2023/05/22 06:01:34;;;;;;;11.73;4.30;;;18.70;99.90;;;;;;5060967;28;20182;-81
2023/05/22 06:04:02;;;;;;;13.50;5.00;;;18.70;99.90;;;;;;5075847;28;20277;-83
2023/05/22 06:06:35;;;;;;;11.37;5.17;;;18.80;99.90;;;;;;5076419;28;20193;-83
2023/05/22 06:09:09;;;;;;;10.67;4.53;;;18.80;99.90;;;;;;5059206;28;20283;-83
2023/05/22 06:11:36;;;;;;;10.07;4.70;;;18.90;99.90;;;;;;5074534;28;20197;-83
2023/05/22 06:14:06;;;;;;;14.07;5.27;;;19.00;99.90;;;;;;5073836;28;20201;-84
2023/05/22 06:17:00;;;;;;;13.50;4.27;;;19.00;99.90;;;;;;5057909;28;20232;-84
2023/05/22 06:19:33;;;;;;;11.63;4.47;;;19.10;99.90;;;;;;5075412;28;20264;-81
2023/05/22 06:22:02;;;;;;;10.53;3.97;;;19.10;99.90;;;;;;5057452;28;20649;-83
2023/05/22 06:24:32;;;;;;;13.00;5.03;;;19.20;99.90;;;;;;5058315;28;20186;-83
2023/05/22 06:27:05;;;;;;;11.93;4.27;;;19.20;99.90;;;;;;5096424;27;20609;-86
2023/05/22 06:29:40;;;;;;;12.10;4.43;;;19.30;99.90;;;;;;5065281;28;20278;-86
2023/05/22 06:32:07;;;;;;;16.27;4.87;;;19.30;99.90;;;;;;5109088;27;20335;-84
2023/05/22 06:34:37;;;;;;;14.27;4.30;;;19.40;99.90;;;;;;5078762;28;20206;-85
2023/05/22 06:37:10;;;;;;;8.80;4.30;;;19.40;99.90;;;;;;5058796;28;20286;-87
2023/05/22 06:39:38;;;;;;;12.60;4.30;;;19.50;99.90;;;;;;5076438;28;20223;-84
2023/05/22 06:42:08;;;;;;;13.60;4.57;;;19.50;99.90;;;;;;5090586;27;20190;-82
2023/05/22 06:44:35;;;;;;;9.95;4.00;;;19.60;99.90;;;;;;5090623;28;20414;-85
2023/05/22 06:47:09;;;;;;;14.20;4.30;;;19.70;99.90;;;;;;5060529;28;20198;-84
2023/05/22 06:49:35;;;;;;;12.20;3.60;;;19.80;99.90;;;;;;5090052;28;20284;-89
2023/05/22 06:52:02;;;;;;;11.17;3.90;;;19.80;99.90;;;;;;5059313;28;20307;-84
2023/05/22 06:54:41;;;;;;;12.30;4.23;;;19.90;99.90;;;;;;5060628;28;20222;-83
2023/05/22 06:57:10;;;;;;;8.73;3.63;;;20.00;99.90;;;;;;5087044;28;20185;-82
2023/05/22 06:59:37;;;;;;;10.10;4.20;;;20.00;99.90;;;;;;5057809;28;20655;-86
2023/05/22 07:02:04;;;;;;;11.10;4.67;;;20.10;99.90;;;;;;5094558;27;20778;-85
2023/05/22 07:04:33;;;;;;;11.90;3.77;;;20.20;99.90;;;;;;5062906;28;20234;-88
2023/05/22 07:07:01;;;;;;;7.50;3.47;;;20.20;99.90;;;;;;5065371;28;20277;-88
2023/05/22 07:09:30;;;;;;;9.20;3.53;;;20.30;99.90;;;;;;5068580;28;20724;-83
2023/05/22 07:12:00;;;;;;;12.87;4.17;;;20.30;99.90;;;;;;5077934;28;20197;-84
2023/05/22 07:14:30;;;;;;;11.00;3.70;;;20.40;99.90;;;;;;5079169;28;20204;-83
2023/05/22 07:17:00;;;;;;;5.83;3.20;;;20.50;99.90;;;;;;5078687;28;20299;-84
2023/05/22 07:23:12;;;;;;;8.93;3.10;;;20.60;99.90;;;;;;5081701;28;20243;-83
2023/05/22 07:25:38;;;;;;;8.47;3.80;;;20.70;99.90;;;;;;5062093;28;20187;-83
2023/05/22 07:28:07;;;;;;;7.03;2.97;;;20.70;99.90;;;;;;5062443;28;20183;-83
2023/05/22 07:30:37;;;;;;;9.77;3.47;;;20.80;99.90;;;;;;5074500;28;20629;-82
2023/05/22 07:33:05;;;;;;;8.30;3.10;;;20.90;99.90;;;;;;5075874;28;20213;-84
2023/05/22 07:35:34;;;;;;;6.20;3.13;;;21.00;99.90;;;;;;5073108;28;20641;-86
2023/05/22 07:38:04;;;;;;;7.83;3.20;;;21.00;99.90;;;;;;5057248;28;20814;-83
2023/05/22 07:40:32;;;;;;;9.93;3.20;;;21.10;99.90;;;;;;5086385;28;20183;-81
2023/05/22 07:43:06;;;;;;;7.57;2.97;;;21.20;99.90;;;;;;5077488;28;20236;-81
2023/05/22 07:45:33;;;;;;;9.83;2.87;;;21.30;99.90;;;;;;5093555;27;20216;-87
2023/05/22 07:48:03;;;;;;;12.05;3.25;;;21.30;99.90;;;;;;5075291;28;20467;-83
2023/05/22 07:50:35;;;;;;;6.65;3.08;;;21.40;99.90;;;;;;5066526;28;20755;-84
2023/05/22 07:53:03;;;;;;;6.63;2.90;;;21.50;99.90;;;;;;5095181;27;20633;-85
2023/05/22 07:55:30;;;;;;;7.32;2.80;;;21.60;99.90;;;;;;5096230;27;20667;-84
2023/05/22 07:58:02;;;;;;;6.80;3.10;;;21.60;99.90;;;;;;5082483;28;20182;-83
2023/05/22 08:00:32;;;;;;;8.93;3.15;;;21.70;99.90;;;;;;5073608;28;20422;-87
2023/05/22 08:03:04;;;;;;;5.50;2.92;;;21.80;99.90;;;;;;5069411;28;20186;-87
2023/05/22 08:05:42;;;;;;;10.10;3.15;;;21.90;99.90;;;;;;5059985;28;20206;-87
2023/05/22 08:08:17;;;;;;;9.07;3.00;;;22.00;99.90;;;;;;5087431;28;20214;-84
2023/05/22 08:10:50;;;;;;;8.40;3.20;;;22.10;99.90;;;;;;5105248;27;20187;-83
2023/05/22 08:13:25;;;;;;;10.10;2.92;;;22.20;99.90;;;;;;5107760;27;20722;-84
2023/05/22 08:15:57;;;;;;;10.18;3.13;;;22.30;99.90;;;;;;5082104;28;20185;-85
2023/05/22 08:18:27;;;;;;;9.50;3.05;;;22.40;99.90;;;;;;5079663;28;20187;-83
2023/05/22 08:21:00;;;;;;;8.68;3.08;;;22.50;99.90;;;;;;5082670;28;20277;-84
2023/05/22 08:23:35;;;;;;;10.93;2.92;;;22.60;99.90;;;;;;5092110;28;20219;-82
2023/05/22 08:26:07;;;;;;;15.30;3.72;;;22.80;99.90;;;;;;5080829;28;20565;-85
2023/05/22 08:28:34;;;;;;;9.52;3.30;;;22.90;99.90;;;;;;5055775;28;20186;-84
2023/05/22 08:31:04;;;;;;;11.43;3.40;;;23.10;99.90;;;;;;5100277;27;20194;-84
2023/05/22 08:33:30;;;;;;;11.68;3.45;;;23.10;99.90;;;;;;5081898;28;20289;-88
2023/05/22 08:36:03;;;;;;;14.55;3.72;;;23.30;99.90;;;;;;5059831;28;20178;-85
2023/05/22 08:38:32;;;;;;;10.93;3.42;;;23.40;99.90;;;;;;5079447;28;20364;-85
2023/05/22 08:40:59;;;;;;;8.95;3.33;;;23.50;99.90;;;;;;5063293;28;20193;-82
2023/05/22 08:43:33;;;;;;;10.65;3.63;;;23.70;99.90;;;;;;5058947;28;20203;-82
2023/05/22 08:46:08;;;;;;;13.90;3.80;;;23.80;99.90;;;;;;5055327;28;20197;-85
2023/05/22 08:48:43;;;;;;;12.23;3.58;;;23.80;99.90;;;;;;5061670;28;20186;-82
2023/05/22 08:51:26;;;;;;;10.93;3.40;;;23.90;99.90;;;;;;5053095;28;20960;-83
2023/05/22 08:53:56;;;;;;;8.27;3.63;;;24.00;99.90;;;;;;5077963;28;20267;-85
2023/05/22 08:56:25;;;;;;;9.20;3.40;;;24.10;99.90;;;;;;5085170;28;20235;-82
2023/05/22 08:59:00;;;;;;;8.00;3.38;;;24.20;99.90;;;;;;5091558;28;20520;-83
2023/05/22 09:01:35;;;;;;;10.82;3.42;;;24.30;99.90;;;;;;5079717;28;20684;-89
2023/05/22 09:04:05;;;;;;;8.20;3.38;;;24.30;99.90;;;;;;5062617;28;20277;-86
2023/05/22 09:06:34;;;;;;;14.68;4.00;;;24.40;99.90;;;;;;5060756;28;20210;-86
2023/05/22 09:09:09;;;;;;;14.93;3.90;;;24.50;99.90;;;;;;5110041;27;20197;-85
2023/05/22 09:11:36;;;;;;;11.07;3.45;;;24.70;99.90;;;;;;5077556;28;20264;-86
2023/05/22 09:14:15;;;;;;;11.38;4.07;;;24.80;99.90;;;;;;5072612;28;20203;-86
2023/05/22 09:16:53;;;;;;;15.60;3.90;;;24.90;99.90;;;;;;5079040;28;20182;-82
2023/05/22 09:19:20;;;;;;;12.00;4.50;;;24.90;99.90;;;;;;5091924;28;20174;-84
2023/05/22 09:21:50;;;;;;;8.13;3.72;;;25.00;99.90;;;;;;5057991;28;20269;-83
2023/05/22 09:24:22;;;;;;;13.70;5.00;;;25.10;99.90;;;;;;5057693;28;20186;-85
2023/05/22 09:26:56;;;;;;;15.85;4.03;;;25.20;99.90;;;;;;5086431;27;20210;-85
2023/05/22 09:29:25;;;;;;;14.90;3.88;;;25.30;99.90;;;;;;5073980;28;20194;-85
2023/05/22 09:31:51;;;;;;;14.05;3.60;;;25.30;99.90;;;;;;5054770;28;20238;-86
2023/05/22 09:34:31;;;;;;;11.68;3.97;;;25.40;99.90;;;;;;5106732;27;20221;-84
2023/05/22 09:37:05;;;;;;;8.23;3.80;;;25.40;99.90;;;;;;5090098;28;20551;-84
2023/05/22 09:39:42;;;;;;;7.97;3.63;;;25.40;99.90;;;;;;5062448;28;20202;-85
2023/05/22 09:42:17;;;;;;;8.70;3.95;;;25.40;99.90;;;;;;5063548;28;20289;-80
2023/05/22 09:44:55;;;;;;;13.10;4.00;;;25.60;99.90;;;;;;5076150;28;20213;-85
2023/05/22 09:47:25;;;;;;;15.35;4.20;;;25.70;99.90;;;;;;5075545;28;20194;-81
2023/05/22 09:49:57;;;;;;;11.55;4.50;;;25.70;99.90;;;;;;5080325;28;20236;-84
2023/05/22 09:52:37;;;;;;;10.98;4.32;;;25.80;99.90;;;;;;5063070;28;20265;-83
2023/05/22 09:55:09;;;;;;;15.55;4.57;;;25.90;99.90;;;;;;5061785;28;20237;-85
2023/05/22 09:57:44;;;;;;;10.93;4.90;;;25.90;99.90;;;;;;5076842;28;20182;-83
2023/05/22 10:00:17;;;;;;;16.05;4.28;;;26.00;99.90;;;;;;5082504;28;20270;-82
2023/05/22 10:03:07;;;;;;;11.57;4.03;;;26.00;99.90;;;;;;5114734;27;20231;-85
2023/05/22 10:05:44;;;;;;;18.95;4.30;;;26.00;99.90;;;;;;5075157;28;20277;-86
2023/05/22 10:08:16;;;;;;;11.75;4.30;;;26.10;99.90;;;;;;5079624;28;20276;-84
2023/05/22 10:10:51;;;;;;;13.63;5.03;;;26.10;99.90;;;;;;5076397;28;20193;-82
2023/05/22 10:13:19;;;;;;;13.95;4.30;;;26.10;99.90;;;;;;5078529;28;20201;-82
2023/05/22 10:15:52;;;;;;;13.20;4.20;;;26.10;99.90;;;;;;5078039;28;20178;-83
2023/05/22 10:18:19;;;;;;;10.93;4.70;;;26.20;99.90;;;;;;5077184;28;20174;-84
2023/05/22 10:20:45;;;;;;;11.20;4.72;;;26.20;99.90;;;;;;5081803;28;20285;-85
2023/05/22 10:23:17;;;;;;;18.33;5.20;;;26.10;99.90;;;;;;5083225;28;20182;-86
2023/05/22 10:25:44;;;;;;;11.10;4.95;;;26.20;99.90;;;;;;5056466;28;20186;-85
2023/05/22 10:28:23;;;;;;;13.40;4.93;;;26.20;99.90;;;;;;5076823;28;20217;-83
2023/05/22 10:31:13;;;;;;;10.30;4.60;;;26.10;99.90;;;;;;5060082;28;20608;-86
2023/05/22 10:33:50;;;;;;;15.93;5.68;;;26.10;99.90;;;;;;5078448;28;20210;-87
2023/05/22 10:36:42;;;;;;;14.90;5.78;;;26.10;99.90;;;;;;5075325;28;20273;-85
2023/05/22 10:39:45;;;;;;;14.02;5.43;;;26.00;99.90;;;;;;5077836;28;20189;-85
2023/05/22 10:42:15;;;;;;;17.65;5.85;;;26.00;99.90;;;;;;5066725;28;20182;-84
2023/05/22 10:44:42;;;;;;;13.80;5.85;;;26.00;99.90;;;;;;5078700;28;20178;-83
2023/05/22 10:47:11;;;;;;;17.65;5.90;;;26.00;99.90;;;;;;5080480;28;20182;-84
2023/05/22 10:49:44;;;;;;;12.48;5.60;;;26.00;99.90;;;;;;5065017;28;20239;-83
2023/05/22 10:52:13;;;;;;;15.90;6.15;;;25.90;99.90;;;;;;5061789;28;20630;-86
2023/05/22 10:54:47;;;;;;;17.65;5.95;;;25.80;99.90;;;;;;5090941;28;20199;-85
2023/05/22 10:57:16;;;;;;;19.20;6.28;;;25.80;99.90;;;;;;5059729;28;20212;-87
2023/05/22 10:59:46;;;;;;;22.40;6.25;;;25.70;99.90;;;;;;5099885;27;20174;-88
2023/05/22 11:02:30;;;;;;;13.60;5.95;;;25.70;99.90;;;;;;5080690;28;20189;-85
2023/05/22 11:05:35;;;;;;;16.60;5.95;;;25.70;99.90;;;;;;5064095;28;20274;-87
2023/05/22 11:08:32;;;;;;;12.48;5.97;;;25.60;99.90;;;;;;5057767;28;20202;-83
2023/05/22 11:11:11;;;;;;;14.57;6.00;;;25.60;99.90;;;;;;5075591;28;20178;-84
2023/05/22 11:13:38;;;;;;;14.35;6.45;;;25.60;99.90;;;;;;5058359;28;20210;-87
2023/05/22 11:16:07;;;;;;;13.30;6.70;;;25.60;99.90;;;;;;5088795;27;20187;-85
2023/05/22 11:18:35;;;;;;;14.98;6.38;;;25.60;99.90;;;;;;5073372;28;20279;-86
2023/05/22 11:21:04;;;;;;;16.65;6.72;;;25.60;99.90;;;;;;5060315;28;20294;-85
2023/05/22 11:23:35;;;;;;;12.88;6.35;;;25.60;99.90;;;;;;5071975;28;20210;-85
2023/05/22 11:26:24;;;;;;;17.58;6.05;;;25.60;99.90;;;;;;5058635;28;20213;-83
2023/05/22 11:28:52;;;;;;;20.20;7.50;;;25.60;99.90;;;;;;5085453;28;20214;-83
2023/05/22 11:31:21;;;;;;;18.25;6.90;;;25.40;99.90;;;;;;5052228;28;21269;-84
2023/05/22 11:33:48;;;;;;;16.80;6.63;;;25.40;99.90;;;;;;5071972;28;20559;-85
2023/05/22 11:36:15;;;;;;;17.15;6.93;;;25.30;99.90;;;;;;5086671;28;20559;-83
2023/05/22 11:38:42;;;;;;;14.10;6.30;;;25.30;99.90;;;;;;5058620;28;20186;-85
2023/05/22 11:41:10;;;;;;;16.50;6.82;;;25.30;99.90;;;;;;5058511;28;20182;-87
2023/05/22 11:43:41;;;;;;;15.93;6.35;;;25.20;99.90;;;;;;5061929;28;20277;-84
2023/05/22 11:46:11;;;;;;;17.98;6.78;;;25.20;99.90;;;;;;5059472;28;20182;-87
2023/05/22 11:48:42;;;;;;;19.90;7.00;;;25.20;99.90;;;;;;5090772;27;20186;-87
2023/05/22 11:51:09;;;;;;;14.25;6.25;;;25.20;99.90;;;;;;5062121;28;20645;-83
2023/05/22 11:53:42;;;;;;;14.52;6.00;;;25.10;99.90;;;;;;5092173;27;20302;-84
2023/05/22 11:56:12;;;;;;;23.00;7.80;;;25.10;99.90;;;;;;5112749;27;20173;-86
2023/05/22 11:58:39;;;;;;;15.38;6.90;;;25.00;99.90;;;;;;5094060;27;20542;-86
2023/05/22 12:01:09;;;;;;;18.52;6.55;;;25.00;99.90;;;;;;5079778;28;20174;-93
2023/05/22 12:03:38;;;;;;;20.98;8.25;;;24.90;99.90;;;;;;5065354;28;20186;-87
2023/05/22 12:06:08;;;;;;;21.25;8.88;;;24.80;99.90;;;;;;5058297;28;20200;-89
2023/05/22 12:08:36;;;;;;;18.15;8.00;;;24.70;99.90;;;;;;5109195;27;20187;-84
2023/05/22 12:11:05;;;;;;;19.52;7.55;;;24.70;99.90;;;;;;5057214;28;20328;-86
2023/05/22 12:13:32;;;;;;;18.23;7.93;;;24.60;99.90;;;;;;5092102;27;20214;-87
2023/05/22 12:16:00;;;;;;;19.90;8.15;;;24.50;99.90;;;;;;5082198;28;20215;-86
2023/05/22 12:18:36;;;;;;;22.70;8.02;;;24.40;99.90;;;;;;5081438;28;21990;-85
2023/05/22 12:21:05;;;;;;;19.38;8.35;;;24.30;99.90;;;;;;5081673;28;20179;-84
2023/05/22 12:23:32;;;;;;;19.63;7.95;;;24.20;99.90;;;;;;5060366;28;21187;-85
2023/05/22 12:26:07;;;;;;;17.58;7.63;;;24.20;99.90;;;;;;5063434;28;20194;-84
2023/05/22 12:28:37;;;;;;;17.40;8.02;;;24.30;99.90;;;;;;5061016;28;20197;-87
2023/05/22 12:31:04;;;;;;;22.52;8.63;;;24.30;99.90;;;;;;5058455;28;20225;-86
2023/05/22 12:33:31;;;;;;;25.10;8.50;;;24.30;99.90;;;;;;5058027;28;21456;-91
2023/05/22 12:35:58;;;;;;;17.17;7.57;;;24.30;99.90;;;;;;5083838;27;20187;-88
2023/05/22 12:38:30;;;;;;;19.15;8.07;;;24.30;99.90;;;;;;5052389;28;20238;-88
2023/05/22 12:40:59;;;;;;;16.30;8.48;;;24.30;99.90;;;;;;5085269;27;20202;-82
2023/05/22 12:43:26;;;;;;;16.10;8.05;;;24.30;99.90;;;;;;5071747;28;20201;-87
2023/05/22 12:45:53;;;;;;;18.60;7.63;;;24.20;99.90;;;;;;5075836;28;20212;-85
2023/05/22 12:48:19;;;;;;;19.70;8.02;;;24.10;99.90;;;;;;5076313;28;20239;-86
2023/05/22 12:50:49;;;;;;;15.73;8.02;;;24.00;99.90;;;;;;5059564;28;20239;-89
2023/05/22 12:53:15;;;;;;;22.73;7.75;;;23.90;99.90;;;;;;5072028;28;20201;-86
2023/05/22 12:55:43;;;;;;;22.65;8.35;;;23.90;99.90;;;;;;5056795;28;20186;-88
2023/05/22 12:58:10;;;;;;;15.30;7.95;;;23.80;99.90;;;;;;5091182;28;20174;-84
2023/05/22 13:00:36;;;;;;;16.40;7.80;;;23.80;99.90;;;;;;5075779;28;20182;-85
2023/05/22 13:03:05;;;;;;;18.52;7.40;;;23.70;99.90;;;;;;5073186;28;20186;-86
2023/05/22 13:05:31;;;;;;;19.80;7.43;;;23.70;99.90;;;;;;5070781;28;20178;-87
2023/05/22 13:07:58;;;;;;;20.40;7.60;;;23.70;99.90;;;;;;5055481;28;20546;-85
2023/05/22 13:10:24;;;;;;;21.25;8.02;;;23.70;99.90;;;;;;5053983;28;21224;-86
2023/05/22 13:12:51;;;;;;;15.02;7.40;;;23.60;99.90;;;;;;5054333;28;20182;-89
2023/05/22 13:15:18;;;;;;;20.00;7.03;;;23.60;99.90;;;;;;5058789;28;20206;-85
2023/05/22 13:17:49;;;;;;;21.50;7.35;;;23.50;99.90;;;;;;5057091;28;20186;-91
2023/05/22 13:20:15;;;;;;;21.85;7.30;;;23.50;99.90;;;;;;5070091;28;20751;-85
2023/05/22 13:22:42;;;;;;;18.20;6.60;;;23.50;99.90;;;;;;5052584;28;21387;-86
2023/05/22 13:25:13;;;;;;;13.63;6.40;;;23.40;99.90;;;;;;5067913;28;20194;-91
2023/05/22 13:27:40;;;;;;;13.05;6.35;;;23.30;99.90;;;;;;5056012;28;20553;-86